Time;durP1;ratioP1;P1;durP2;ratioP2;P2;SDS_P1;SDS_P2;PMS_P1;PMS_P2;Temp;Humidity;BMP_temperature;BMP_pressure;BME280_temperature;BME280_humidity;BME280_pressure;Samples;Min_cycle;Max_cycle;Signal;HPM_P1;HPM_P2
2023/01/19 00:02:21;;;;;;;41.80;17.88;;;;;;;-144.31;100.00;58022.63;5024983;28;20514;-60
2023/01/19 00:04:47;;;;;;;41.60;17.38;;;;;;;-144.31;100.00;58022.63;5029931;28;20742;-56
2023/01/19 00:07:12;;;;;;;33.83;15.38;;;;;;;-144.31;100.00;58022.63;5027131;28;20170;-57
2023/01/19 00:09:38;;;;;;;41.78;16.42;;;;;;;-144.31;100.00;58022.63;5030670;28;20037;-55
2023/01/19 00:12:04;;;;;;;36.20;15.93;;;;;;;-144.31;100.00;58022.63;5024715;28;20033;-56
2023/01/19 00:14:29;;;;;;;43.35;18.60;;;;;;;-144.31;100.00;58022.63;5026984;28;20041;-55
2023/01/19 00:16:55;;;;;;;41.03;16.73;;;;;;;-144.31;100.00;58022.63;5027974;28;20046;-56
2023/01/19 00:19:20;;;;;;;34.05;17.42;;;;;;;-144.31;100.00;58022.63;5024606;28;20183;-57
2023/01/19 00:21:46;;;;;;;41.35;18.90;;;;;;;-144.31;100.00;58022.63;5027593;28;20428;-63
2023/01/19 00:24:12;;;;;;;36.85;17.27;;;;;;;-144.31;100.00;58022.63;5025918;28;20461;-58
2023/01/19 00:26:39;;;;;;;32.93;16.70;;;;;;;-144.31;100.00;58022.63;5022649;28;20035;-53
2023/01/19 00:29:06;;;;;;;35.45;16.38;;;;;;;-144.31;100.00;58022.63;5028856;28;20768;-57
2023/01/19 00:31:35;;;;;;;34.85;16.55;;;;;;;-144.31;100.00;58022.63;5024413;28;20033;-55
2023/01/19 00:34:01;;;;;;;35.88;16.55;;;;;;;-144.31;100.00;58022.63;5025543;28;20087;-57
2023/01/19 00:36:26;;;;;;;32.22;15.63;;;;;;;-144.31;100.00;58022.63;5033782;28;20671;-59
2023/01/19 00:38:52;;;;;;;35.03;16.15;;;;;;;-144.31;100.00;58022.63;5025252;28;20041;-54
2023/01/19 00:41:17;;;;;;;40.55;16.52;;;;;;;-144.31;100.00;58022.63;5025456;28;20059;-58
2023/01/19 00:43:43;;;;;;;31.15;14.68;;;;;;;-144.31;100.00;58022.63;5023341;28;20033;-52
2023/01/19 00:46:08;;;;;;;31.00;14.60;;;;;;;-144.31;100.00;58022.63;5022793;28;20686;-54
2023/01/19 00:48:34;;;;;;;26.45;13.57;;;;;;;-144.31;100.00;58022.63;5032253;28;20076;-57
2023/01/19 00:50:59;;;;;;;30.17;12.85;;;;;;;-144.31;100.00;58022.63;5021495;28;20377;-57
2023/01/19 00:53:25;;;;;;;34.40;12.90;;;;;;;-144.31;100.00;58022.63;5029060;28;20116;-56
2023/01/19 00:55:50;;;;;;;29.33;14.77;;;;;;;-144.31;100.00;58022.63;5022996;28;20154;-58
2023/01/19 00:58:16;;;;;;;34.88;15.95;;;;;;;-144.31;100.00;58022.63;5025560;28;20459;-60
2023/01/19 01:00:44;;;;;;;34.70;15.27;;;;;;;-144.31;100.00;58022.63;5027963;28;20509;-59
2023/01/19 01:03:09;;;;;;;38.88;16.42;;;;;;;-144.31;100.00;58022.63;5020246;28;20029;-61
2023/01/19 01:05:35;;;;;;;31.92;16.00;;;;;;;-144.31;100.00;58022.63;5034822;28;20048;-55
2023/01/19 01:08:00;;;;;;;34.45;15.35;;;;;;;-144.31;100.00;58022.63;5029885;28;20033;-54
2023/01/19 01:10:28;;;;;;;33.95;15.15;;;;;;;-144.31;100.00;58022.63;5027712;28;20062;-60
2023/01/19 01:12:54;;;;;;;32.25;16.20;;;;;;;-144.31;100.00;58022.63;5032849;28;20116;-58
2023/01/19 01:15:20;;;;;;;35.88;15.80;;;;;;;-144.31;100.00;58022.63;5027910;28;20474;-56
2023/01/19 01:17:47;;;;;;;32.17;14.98;;;;;;;-144.31;100.00;58022.63;5035320;28;20049;-53
2023/01/19 01:20:15;;;;;;;32.45;15.65;;;;;;;-144.31;100.00;58022.63;5031068;28;20477;-58
2023/01/19 01:22:44;;;;;;;33.05;15.85;;;;;;;-144.31;100.00;58022.63;5028834;28;20054;-57
2023/01/19 01:25:11;;;;;;;37.03;15.82;;;;;;;-144.31;100.00;58022.63;5031761;28;20763;-50
2023/01/19 01:27:40;;;;;;;34.03;15.57;;;;;;;-144.31;100.00;58022.63;5027020;28;20037;-58
2023/01/19 01:30:06;;;;;;;29.42;14.95;;;;;;;-144.31;100.00;58022.63;5031180;28;20041;-57
2023/01/19 01:32:32;;;;;;;32.70;16.05;;;;;;;-144.31;100.00;58022.63;5027979;28;20115;-60
2023/01/19 01:34:57;;;;;;;39.60;15.68;;;;;;;-144.31;100.00;58022.63;5027531;28;20040;-57
2023/01/19 01:37:23;;;;;;;40.25;18.08;;;;;;;-144.31;100.00;58022.63;5030527;28;20108;-56
2023/01/19 01:39:48;;;;;;;34.20;16.65;;;;;;;-144.31;100.00;58022.63;5024037;28;20437;-56
2023/01/19 01:42:17;;;;;;;53.58;24.85;;;;;;;-144.31;100.00;58022.63;5032928;28;20394;-51
2023/01/19 01:44:52;;;;;;;50.70;21.10;;;;;;;-144.31;100.00;58022.63;5027544;28;20128;-55
2023/01/19 01:47:31;;;;;;;37.33;17.48;;;;;;;-144.31;100.00;58022.63;5026520;28;20039;-59
2023/01/19 01:50:02;;;;;;;43.40;18.38;;;;;;;-144.31;100.00;58022.63;5031260;28;20376;-56
2023/01/19 01:52:30;;;;;;;36.55;17.38;;;;;;;-144.31;100.00;58022.63;5024584;28;20187;-56
2023/01/19 01:54:57;;;;;;;27.20;14.05;;;;;;;-144.31;100.00;58022.63;5027825;28;20895;-54
2023/01/19 01:57:26;;;;;;;26.55;13.95;;;;;;;-144.31;100.00;58022.63;5032168;28;20042;-56
2023/01/19 01:59:56;;;;;;;32.42;14.45;;;;;;;-144.31;100.00;58022.63;5023817;28;20067;-57
2023/01/19 02:05:18;;;;;;;33.78;14.77;;;;;;;-144.31;100.00;58022.63;5035223;28;20502;-59
2023/01/19 02:13:34;;;;;;;32.65;15.98;;;;;;;-144.31;100.00;58022.63;5030131;28;20034;-54
2023/01/19 02:16:05;;;;;;;35.70;15.80;;;;;;;-144.31;100.00;58022.63;5022932;28;20037;-57
2023/01/19 02:18:31;;;;;;;38.10;15.70;;;;;;;-144.31;100.00;58022.63;5031747;28;20045;-58
2023/01/19 02:21:10;;;;;;;40.83;16.55;;;;;;;-144.31;100.00;58022.63;5009374;28;20079;-55
2023/01/19 02:23:46;;;;;;;39.17;16.10;;;;;;;-144.31;100.00;58022.63;5028321;28;20025;-57
2023/01/19 02:26:34;;;;;;;36.67;15.35;;;;;;;-144.31;100.00;58022.63;5032443;28;20037;-57
2023/01/19 02:29:10;;;;;;;27.75;12.00;;;;;;;-144.31;100.00;58022.63;5024475;28;20049;-58
2023/01/19 02:31:38;;;;;;;23.00;12.10;;;;;;;-144.31;100.00;58022.63;5021923;28;20120;-58
2023/01/19 02:34:06;;;;;;;25.55;12.63;;;;;;;-144.31;100.00;58022.63;5029150;28;20414;-60
2023/01/19 02:36:38;;;;;;;25.65;12.18;;;;;;;-144.31;100.00;58022.63;5025212;28;20037;-60
2023/01/19 02:39:05;;;;;;;27.25;13.05;;;;;;;-144.31;100.00;58022.63;5027839;28;20671;-58
2023/01/19 02:41:33;;;;;;;;;;;;;;;-144.31;100.00;58022.63;5047179;28;20033;-55
2023/01/19 02:44:00;;;;;;;24.27;12.20;;;;;;;-144.31;100.00;58022.63;5027040;28;19920;-59
2023/01/19 02:46:26;;;;;;;;;;;;;;;-144.31;100.00;58022.63;5031787;28;20078;-60
2023/01/19 02:48:56;;;;;;;33.22;14.38;;;;;;;-144.31;100.00;58022.63;5021441;28;20381;-57
2023/01/19 02:51:23;;;;;;;30.58;14.43;;;;;;;-144.31;100.00;58022.63;5026529;28;20686;-58
2023/01/19 02:53:51;;;;;;;31.92;14.25;;;;;;;-144.31;100.00;58022.63;5029557;28;20041;-55
2023/01/19 02:56:45;;;;;;;29.70;14.40;;;;;;;-144.31;100.00;58022.63;5025078;28;20398;-54
2023/01/19 02:59:13;;;;;;;24.02;12.13;;;;;;;-144.31;100.00;58022.63;5027581;28;20111;-58
2023/01/19 03:02:07;;;;;;;24.40;11.45;;;;;;;-144.31;100.00;58022.63;5031128;28;20116;-58
2023/01/19 03:05:07;;;;;;;28.50;11.85;;;;;;;-144.31;100.00;58022.63;5024613;28;20048;-57
2023/01/19 03:07:55;;;;;;;21.85;10.50;;;;;;;-144.31;100.00;58022.63;5026239;28;20086;-58
2023/01/19 03:10:38;;;;;;;24.73;11.48;;;;;;;-144.31;100.00;58022.63;5030374;28;20068;-56
2023/01/19 03:13:22;;;;;;;23.48;11.45;;;;;;;-144.31;100.00;58022.63;5022843;28;20040;-55
2023/01/19 03:15:55;;;;;;;26.10;11.88;;;;;;;-144.31;100.00;58022.63;5026002;28;20393;-57
2023/01/19 03:18:26;;;;;;;24.40;11.98;;;;;;;-144.31;100.00;58022.63;5033259;28;20586;-57
2023/01/19 03:20:54;;;;;;;25.05;12.48;;;;;;;-144.31;100.00;58022.63;5023833;28;20052;-57
2023/01/19 03:23:23;;;;;;;25.48;12.43;;;;;;;-144.31;100.00;58022.63;5027455;28;20453;-62
2023/01/19 03:25:52;;;;;;;23.55;12.05;;;;;;;-144.31;100.00;58022.63;5029232;28;20394;-58
2023/01/19 03:28:21;;;;;;;29.77;12.48;;;;;;;-144.31;100.00;58022.63;5020068;28;20042;-58
2023/01/19 03:30:55;;;;;;;21.15;11.70;;;;;;;-144.31;100.00;58022.63;5029948;28;20041;-58
2023/01/19 03:33:28;;;;;;;32.97;14.40;;;;;;;-144.31;100.00;58022.63;5021995;28;20141;-58
2023/01/19 03:36:02;;;;;;;47.72;18.45;;;;;;;-144.31;100.00;58022.63;5026309;28;20041;-55
2023/01/19 03:38:34;;;;;;;31.52;13.27;;;;;;;-144.31;100.00;58022.63;5031938;28;20094;-56
2023/01/19 03:41:05;;;;;;;29.30;13.48;;;;;;;-144.31;100.00;58022.63;5025769;28;20045;-60
2023/01/19 03:43:34;;;;;;;39.38;16.48;;;;;;;-144.31;100.00;58022.63;5023106;28;20037;-56
2023/01/19 03:46:09;;;;;;;47.05;19.55;;;;;;;-144.31;100.00;58022.63;5029737;28;20163;-58
2023/01/19 03:49:06;;;;;;;42.50;17.20;;;;;;;-144.31;100.00;58022.63;5025844;28;20032;-54
2023/01/19 03:51:55;;;;;;;;;;;;;;;-144.31;100.00;58022.63;5029605;28;20164;-58
2023/01/19 03:54:22;;;;;;;22.17;10.45;;;;;;;-144.31;100.00;58022.63;5027563;28;20021;-57
2023/01/19 03:56:55;;;;;;;19.40;10.50;;;;;;;-144.31;100.00;58022.63;5024318;28;20405;-57
2023/01/19 03:59:22;;;;;;;23.45;10.38;;;;;;;-144.31;100.00;58022.63;5027007;28;20286;-57
2023/01/19 04:01:48;;;;;;;22.65;9.93;;;;;;;-144.31;100.00;58022.63;5023207;28;20544;-59
2023/01/19 04:04:34;;;;;;;22.02;10.85;;;;;;;-144.31;100.00;58022.63;5020527;28;20039;-57
2023/01/19 04:07:00;;;;;;;20.45;11.38;;;;;;;-144.31;100.00;58022.63;5025493;28;20123;-57
2023/01/19 04:09:26;;;;;;;22.40;10.87;;;;;;;-144.31;100.00;58022.63;5022353;28;20068;-57
2023/01/19 04:11:56;;;;;;;20.67;10.77;;;;;;;-144.31;100.00;58022.63;5022283;28;20079;-56
2023/01/19 04:14:21;;;;;;;24.30;11.13;;;;;;;-144.31;100.00;58022.63;5027894;28;20465;-57
2023/01/19 04:16:47;;;;;;;18.38;10.82;;;;;;;-144.31;100.00;58022.63;5026531;28;20040;-55
2023/01/19 04:19:12;;;;;;;31.73;11.55;;;;;;;-144.31;100.00;58022.63;5029242;28;20069;-55
2023/01/19 04:21:38;;;;;;;19.15;10.23;;;;;;;-144.31;100.00;58022.63;5022915;28;20421;-59
2023/01/19 04:24:04;;;;;;;28.38;11.23;;;;;;;-144.31;100.00;58022.63;5030599;28;20033;-57
2023/01/19 04:26:46;;;;;;;22.50;11.80;;;;;;;-144.31;100.00;58022.63;5031735;28;20123;-54
2023/01/19 04:29:35;;;;;;;21.63;10.85;;;;;;;-144.31;100.00;58022.63;5020141;28;20042;-58
2023/01/19 04:32:35;;;;;;;20.45;11.02;;;;;;;-144.31;100.00;58022.63;5021765;28;20232;-58
2023/01/19 04:35:02;;;;;;;38.53;15.20;;;;;;;-144.31;100.00;58022.63;5031222;28;20382;-62
2023/01/19 04:37:48;;;;;;;39.28;15.65;;;;;;;-144.31;100.00;58022.63;5022380;28;20208;-59
2023/01/19 04:40:14;;;;;;;30.17;15.43;;;;;;;-144.31;100.00;58022.63;5029077;28;20065;-57
2023/01/19 04:43:13;;;;;;;25.38;13.20;;;;;;;-144.31;100.00;58022.63;5036929;28;20127;-59
2023/01/19 04:46:20;;;;;;;29.25;13.02;;;;;;;-144.31;100.00;58022.63;5029841;28;20032;-51
2023/01/19 04:49:09;;;;;;;25.15;12.68;;;;;;;-144.31;100.00;58022.63;5029301;28;20041;-60
2023/01/19 04:51:40;;;;;;;27.40;12.85;;;;;;;-144.31;100.00;58022.63;5030921;28;20120;-59
2023/01/19 04:54:29;;;;;;;32.90;15.27;;;;;;;-144.31;100.00;58022.63;5029957;28;20040;-58
2023/01/19 04:57:38;;;;;;;29.30;12.98;;;;;;;-144.31;100.00;58022.63;5027369;28;20600;-58
2023/01/19 05:00:25;;;;;;;26.33;13.50;;;;;;;-144.31;100.00;58022.63;5034154;28;20151;-60
2023/01/19 05:03:18;;;;;;;30.92;13.95;;;;;;;-144.31;100.00;58022.63;5036825;28;20032;-58
2023/01/19 05:05:44;;;;;;;27.95;13.50;;;;;;;-144.31;100.00;58022.63;5025924;28;20041;-57
2023/01/19 05:08:17;;;;;;;30.45;15.13;;;;;;;-144.31;100.00;58022.63;5030364;28;20048;-59
2023/01/19 05:11:15;;;;;;;27.23;13.60;;;;;;;-144.31;100.00;58022.63;5033467;28;20191;-57
2023/01/19 05:14:20;;;;;;;26.17;13.27;;;;;;;-144.31;100.00;58022.63;5025113;28;20410;-54
2023/01/19 05:17:43;;;;;;;29.73;12.07;;;;;;;-144.31;100.00;58022.63;5024949;28;20057;-55
2023/01/19 05:20:56;;;;;;;25.25;11.77;;;;;;;-144.31;100.00;58022.63;5033080;28;20171;-58
2023/01/19 05:23:31;;;;;;;28.52;12.15;;;;;;;-144.31;100.00;58022.63;5031519;28;20034;-57
2023/01/19 05:26:21;;;;;;;26.80;13.05;;;;;;;-144.31;100.00;58022.63;5024206;28;20067;-55
2023/01/19 05:29:05;;;;;;;27.25;13.38;;;;;;;-144.31;100.00;58022.63;5026326;28;20044;-55
2023/01/19 05:32:00;;;;;;;23.67;12.38;;;;;;;-144.31;100.00;58022.63;5031659;28;20494;-58
2023/01/19 05:35:18;;;;;;;23.17;12.05;;;;;;;-144.31;100.00;58022.63;5027278;28;20053;-55
2023/01/19 05:38:34;;;;;;;25.17;11.57;;;;;;;-144.31;100.00;58022.63;5025466;28;20619;-55
2023/01/19 05:41:48;;;;;;;;;;;;;;;-144.31;100.00;58022.63;5026663;28;20029;-57
2023/01/19 05:44:53;;;;;;;20.73;10.18;;;;;;;-144.31;100.00;58022.63;5032264;28;19925;-59
2023/01/19 05:47:37;;;;;;;21.17;11.07;;;;;;;-144.31;100.00;58022.63;5039615;28;20523;-53
2023/01/19 05:50:09;;;;;;;22.00;10.82;;;;;;;-144.31;100.00;58022.63;5025073;28;20075;-55
2023/01/19 05:52:59;;;;;;;25.77;13.43;;;;;;;-144.31;100.00;58022.63;5020667;28;20400;-53
2023/01/19 05:56:20;;;;;;;24.75;12.80;;;;;;;-144.31;100.00;58022.63;5028429;28;20299;-56
2023/01/19 05:59:37;;;;;;;25.58;12.50;;;;;;;-144.31;100.00;58022.63;5030439;28;20042;-57
2023/01/19 06:02:56;;;;;;;26.40;12.25;;;;;;;-144.31;100.00;58022.63;5024084;28;20086;-54
2023/01/19 06:06:16;;;;;;;29.40;12.02;;;;;;;-144.31;100.00;58022.63;5025604;28;20042;-55
2023/01/19 06:09:39;;;;;;;26.48;12.30;;;;;;;-144.31;100.00;58022.63;5027022;28;20120;-59
2023/01/19 06:13:03;;;;;;;24.17;12.43;;;;;;;-144.31;100.00;58022.63;5030906;28;20072;-57
2023/01/19 06:16:21;;;;;;;26.33;11.48;;;;;;;-144.31;100.00;58022.63;5029425;28;20504;-56
2023/01/19 06:19:41;;;;;;;26.85;12.18;;;;;;;-144.31;100.00;58022.63;5026887;28;20081;-55
2023/01/19 06:22:34;;;;;;;21.58;11.10;;;;;;;-144.31;100.00;58022.63;5024836;28;20044;-56
2023/01/19 06:25:21;;;;;;;25.73;11.63;;;;;;;-144.31;100.00;58022.63;5026627;28;20040;-58
2023/01/19 06:28:39;;;;;;;21.52;11.27;;;;;;;-144.31;100.00;58022.63;5032637;28;20448;-56
2023/01/19 06:32:00;;;;;;;19.85;10.88;;;;;;;-144.31;100.00;58022.63;5025433;28;20304;-55
2023/01/19 06:34:45;;;;;;;27.05;12.38;;;;;;;-144.31;100.00;58022.63;5022870;28;20038;-56
2023/01/19 06:37:25;;;;;;;29.02;12.80;;;;;;;-144.31;100.00;58022.63;5027451;28;20118;-53
2023/01/19 06:40:20;;;;;;;27.77;12.85;;;;;;;-144.31;100.00;58022.63;5034453;28;20249;-60
2023/01/19 06:43:07;;;;;;;30.83;13.00;;;;;;;-144.31;100.00;58022.63;5028672;28;20421;-57
2023/01/19 06:46:12;;;;;;;21.80;11.45;;;;;;;-144.31;100.00;58022.63;5022962;28;20063;-57
2023/01/19 06:48:51;;;;;;;22.75;12.25;;;;;;;-144.31;100.00;58022.63;5028400;28;20568;-59
2023/01/19 06:52:14;;;;;;;26.83;12.23;;;;;;;-144.31;100.00;58022.63;5025524;28;20046;-59
2023/01/19 06:55:10;;;;;;;25.90;12.45;;;;;;;-144.31;100.00;58022.63;5028809;28;20036;-60
2023/01/19 06:58:21;;;;;;;37.80;16.85;;;;;;;-144.31;100.00;58022.63;5018645;28;20047;-54
2023/01/19 07:01:38;;;;;;;24.95;13.32;;;;;;;-144.31;100.00;58022.63;5033445;28;20047;-56
2023/01/19 07:04:58;;;;;;;52.05;22.85;;;;;;;-144.31;100.00;58022.63;5034795;28;20090;-57
2023/01/19 07:08:21;;;;;;;32.78;17.58;;;;;;;-144.31;100.00;58022.63;5030873;28;20056;-53
2023/01/19 07:11:46;;;;;;;44.17;19.10;;;;;;;-144.31;100.00;58022.63;5032732;28;21344;-56
2023/01/19 07:14:38;;;;;;;37.72;15.18;;;;;;;-144.31;100.00;58022.63;5033216;28;20277;-58
2023/01/19 07:18:06;;;;;;;27.42;13.95;;;;;;;-144.31;100.00;58022.63;5035767;28;20033;-57
2023/01/19 07:21:30;;;;;;;26.85;13.57;;;;;;;-144.31;100.00;58022.63;5034216;28;20097;-53
2023/01/19 07:24:46;;;;;;;33.75;13.68;;;;;;;-144.31;100.00;58022.63;5033009;28;20091;-53
2023/01/19 07:28:10;;;;;;;27.90;14.32;;;;;;;-144.31;100.00;58022.63;5031639;28;20039;-54
2023/01/19 07:31:28;;;;;;;27.10;14.15;;;;;;;-144.31;100.00;58022.63;5030271;28;20051;-59
2023/01/19 07:34:38;;;;;;;30.45;14.15;;;;;;;-144.31;100.00;58022.63;5029529;28;20179;-55
2023/01/19 07:37:12;;;;;;;31.45;15.07;;;;;;;-144.31;100.00;58022.63;5034316;28;20033;-55
2023/01/19 07:39:37;;;;;;;31.58;15.52;;;;;;;-144.31;100.00;58022.63;5032635;28;20065;-54
2023/01/19 07:42:57;;;;;;;32.67;16.55;;;;;;;-144.31;100.00;58022.63;5036119;28;20132;-58
2023/01/19 07:46:21;;;;;;;35.33;15.50;;;;;;;-144.31;100.00;58022.63;5032085;28;20025;-52
2023/01/19 07:49:35;;;;;;;29.58;14.90;;;;;;;-144.31;100.00;58022.63;5031656;28;20082;-58
2023/01/19 07:52:55;;;;;;;31.75;15.65;;;;;;;-144.31;100.00;58022.63;5034863;28;20249;-59
2023/01/19 07:56:19;;;;;;;30.58;14.77;;;;;;;-144.31;100.00;58022.63;5034864;28;20127;-53
2023/01/19 07:59:42;;;;;;;40.58;17.75;;;;;;;-144.31;100.00;58022.63;5036108;28;20049;-55
2023/01/19 08:03:08;;;;;;;44.17;20.90;;;;;;;-144.31;100.00;58022.63;5031581;28;20092;-56
2023/01/19 08:06:34;;;;;;;42.75;20.48;;;;;;;-144.31;100.00;58022.63;5033940;28;20068;-55
2023/01/19 08:09:57;;;;;;;42.80;18.40;;;;;;;-144.31;100.00;58022.63;5039590;28;20045;-57
2023/01/19 08:13:21;;;;;;;39.42;18.50;;;;;;;-144.31;100.00;58022.63;5033669;28;20060;-56
2023/01/19 08:16:48;;;;;;;60.08;21.40;;;;;;;-144.31;100.00;58022.63;5029155;28;20171;-53
2023/01/19 08:20:12;;;;;;;55.83;24.30;;;;;;;-144.31;100.00;58022.63;5033884;28;20079;-58
2023/01/19 08:23:36;;;;;;;62.72;27.77;;;;;;;-144.31;100.00;58022.63;5032673;28;20060;-57
2023/01/19 08:27:14;;;;;;;63.58;25.58;;;;;;;-144.31;100.00;58022.63;5034317;28;20044;-59
2023/01/19 08:30:39;;;;;;;53.05;23.42;;;;;;;-144.31;100.00;58022.63;5032950;28;20458;-56
2023/01/19 08:34:03;;;;;;;61.00;26.13;;;;;;;-144.31;100.00;58022.63;5030601;28;20057;-57
2023/01/19 08:37:26;;;;;;;61.63;24.58;;;;;;;-144.31;100.00;58022.63;5029031;28;20036;-56
2023/01/19 08:40:50;;;;;;;57.58;25.85;;;;;;;-144.31;100.00;58022.63;5031970;28;20090;-58
2023/01/19 08:44:15;;;;;;;53.97;25.10;;;;;;;-144.31;100.00;58022.63;5030008;28;20125;-59
2023/01/19 08:47:39;;;;;;;47.92;23.02;;;;;;;-144.31;100.00;58022.63;5031088;28;20041;-58
2023/01/19 08:51:03;;;;;;;44.03;21.58;;;;;;;-144.31;100.00;58022.63;5029246;28;20041;-58
2023/01/19 08:54:27;;;;;;;42.78;20.95;;;;;;;-144.31;100.00;58022.63;5031180;28;20490;-58
2023/01/19 08:57:58;;;;;;;48.97;22.42;;;;;;;-144.31;100.00;58022.63;5031206;28;20044;-55
2023/01/19 09:01:22;;;;;;;47.60;25.25;;;;;;;-144.31;100.00;58022.63;5032536;28;20440;-60
2023/01/19 09:04:46;;;;;;;44.53;23.20;;;;;;;-144.31;100.00;58022.63;5030464;28;20041;-59
2023/01/19 09:08:11;;;;;;;42.17;23.10;;;;;;;-144.31;100.00;58022.63;5030660;28;20040;-59
2023/01/19 09:11:35;;;;;;;49.72;24.23;;;;;;;-144.31;100.00;58022.63;5027990;28;20088;-57
2023/01/19 09:15:00;;;;;;;42.15;23.40;;;;;;;-144.31;100.00;58022.63;5027103;28;20041;-58
2023/01/19 09:18:24;;;;;;;43.17;22.92;;;;;;;-144.31;100.00;58022.63;5031686;28;20116;-57
2023/01/19 09:21:48;;;;;;;37.15;19.92;;;;;;;-144.31;100.00;58022.63;5030741;28;20124;-57
2023/01/19 09:25:12;;;;;;;28.20;15.52;;;;;;;-144.31;100.00;58022.63;5029115;28;20025;-57
2023/01/19 09:28:36;;;;;;;22.95;13.55;;;;;;;-144.31;100.00;58022.63;5032660;28;20047;-58
2023/01/19 09:32:05;;;;;;;27.83;13.57;;;;;;;-144.31;100.00;58022.63;5039324;28;20676;-59
2023/01/19 09:35:30;;;;;;;26.08;12.73;;;;;;;-144.31;100.00;58022.63;5034131;28;20076;-59
2023/01/19 09:38:54;;;;;;;25.52;13.02;;;;;;;-144.31;100.00;58022.63;5035509;28;20042;-58
2023/01/19 09:42:19;;;;;;;22.42;11.45;;;;;;;-144.31;100.00;58022.63;5035014;28;20917;-57
2023/01/19 09:46:04;;;;;;;23.40;13.05;;;;;;;-144.31;100.00;58022.63;5033193;28;20033;-57
2023/01/19 09:49:39;;;;;;;16.90;10.38;;;;;;;-144.31;100.00;58022.63;5031649;28;20054;-56
2023/01/19 09:53:23;;;;;;;25.60;12.55;;;;;;;-144.31;100.00;58022.63;5036581;28;20155;-57
2023/01/19 09:56:47;;;;;;;18.48;13.00;;;;;;;-144.31;100.00;58022.63;5032938;28;20124;-58
2023/01/19 10:00:27;;;;;;;28.08;16.95;;;;;;;-144.31;100.00;58022.63;5035540;28;20053;-57
2023/01/19 10:04:17;;;;;;;26.92;16.42;;;;;;;-144.31;100.00;58022.63;5037284;28;20506;-56
2023/01/19 10:07:52;;;;;;;22.35;13.65;;;;;;;-144.31;100.00;58022.63;5035354;28;20051;-57
2023/01/19 10:11:25;;;;;;;22.15;13.57;;;;;;;-144.31;100.00;58022.63;5030805;28;20103;-57
2023/01/19 10:15:12;;;;;;;19.17;12.55;;;;;;;-144.31;100.00;58022.63;5041354;28;20045;-56
2023/01/19 10:18:50;;;;;;;23.45;12.30;;;;;;;-144.31;100.00;58022.63;5032280;28;20510;-59
2023/01/19 10:22:25;;;;;;;20.88;12.35;;;;;;;-144.31;100.00;58022.63;5034249;28;20132;-60
2023/01/19 10:26:24;;;;;;;21.33;10.30;;;;;;;-144.31;100.00;58022.63;5030075;28;20044;-58
2023/01/19 10:29:55;;;;;;;15.80;9.50;;;;;;;-144.31;100.00;58022.63;5033471;28;20061;-59
2023/01/19 10:33:27;;;;;;;17.17;9.60;;;;;;;-144.31;100.00;58022.63;5034520;28;20548;-58
2023/01/19 10:36:56;;;;;;;18.55;9.25;;;;;;;-144.31;100.00;58022.63;5035261;28;20072;-58
2023/01/19 10:40:26;;;;;;;17.45;9.57;;;;;;;-144.31;100.00;58022.63;5033203;28;20040;-57
2023/01/19 10:43:57;;;;;;;15.63;8.35;;;;;;;-144.31;100.00;58022.63;5034018;28;20052;-54
2023/01/19 10:47:30;;;;;;;15.65;9.45;;;;;;;-144.31;100.00;58022.63;5033740;28;20044;-57
2023/01/19 10:51:04;;;;;;;18.70;9.27;;;;;;;-144.31;100.00;58022.63;5031783;28;20689;-57
2023/01/19 10:54:30;;;;;;;17.75;9.88;;;;;;;-144.31;100.00;58022.63;5031997;28;20057;-55
2023/01/19 10:58:32;;;;;;;20.15;10.35;;;;;;;-144.31;100.00;58022.63;5030143;28;20832;-57
2023/01/19 11:02:19;;;;;;;15.25;9.27;;;;;;;-144.31;100.00;58022.63;5034248;28;20036;-55
2023/01/19 11:05:44;;;;;;;17.00;9.60;;;;;;;-144.31;100.00;58022.63;5029891;28;20037;-55
2023/01/19 11:09:22;;;;;;;17.63;9.70;;;;;;;-144.31;100.00;58022.63;5034352;28;20041;-56
2023/01/19 11:13:06;;;;;;;14.93;8.05;;;;;;;-144.31;100.00;58022.63;5032472;28;20110;-57
2023/01/19 11:16:39;;;;;;;16.17;8.77;;;;;;;-144.31;100.00;58022.63;5021033;28;20032;-56
2023/01/19 11:20:04;;;;;;;15.30;8.48;;;;;;;-144.31;100.00;58022.63;5031118;28;20038;-59
2023/01/19 11:23:32;;;;;;;19.00;8.75;;;;;;;-144.31;100.00;58022.63;5033073;28;20128;-59
2023/01/19 11:27:02;;;;;;;18.88;8.77;;;;;;;-144.31;100.00;58022.63;5032782;28;20036;-59
2023/01/19 11:30:26;;;;;;;17.48;10.05;;;;;;;-144.31;100.00;58022.63;5031815;28;20096;-61
2023/01/19 11:33:52;;;;;;;22.27;9.98;;;;;;;-144.31;100.00;58022.63;5031934;28;20047;-60
2023/01/19 11:37:28;;;;;;;18.05;9.82;;;;;;;-144.31;100.00;58022.63;5033012;28;20521;-59
2023/01/19 11:40:54;;;;;;;19.63;8.77;;;;;;;-144.31;100.00;58022.63;5028854;28;20048;-60
2023/01/19 11:44:19;;;;;;;16.52;8.52;;;;;;;-144.31;100.00;58022.63;5030734;28;20037;-57
2023/01/19 11:47:54;;;;;;;15.70;7.97;;;;;;;-144.31;100.00;58022.63;5031578;28;20033;-55
2023/01/19 11:51:26;;;;;;;14.70;8.57;;;;;;;-144.31;100.00;58022.63;5030451;28;20033;-58
2023/01/19 11:54:56;;;;;;;19.00;9.23;;;;;;;-144.31;100.00;58022.63;5031480;28;20087;-58
2023/01/19 11:58:20;;;;;;;13.90;7.88;;;;;;;-144.31;100.00;58022.63;5031730;28;20033;-56
2023/01/19 12:01:56;;;;;;;10.73;6.78;;;;;;;-144.31;100.00;58022.63;5029408;28;20033;-59
2023/01/19 12:05:26;;;;;;;13.57;7.22;;;;;;;-144.31;100.00;58022.63;5030840;28;20053;-59
2023/01/19 12:08:59;;;;;;;11.07;6.43;;;;;;;-144.31;100.00;58022.63;5033358;28;20068;-57
2023/01/19 12:12:29;;;;;;;13.05;6.57;;;;;;;-144.31;100.00;58022.63;5030170;28;20121;-57
2023/01/19 12:15:59;;;;;;;11.73;6.65;;;;;;;-144.31;100.00;58022.63;5030857;28;20041;-58
2023/01/19 12:19:41;;;;;;;13.63;7.07;;;;;;;-144.31;100.00;58022.63;5038323;28;20535;-58
2023/01/19 12:23:27;;;;;;;10.52;6.75;;;;;;;-144.31;100.00;58022.63;5029585;28;20144;-59
2023/01/19 12:27:21;;;;;;;13.20;6.88;;;;;;;-144.31;100.00;58022.63;5029881;28;20033;-60
2023/01/19 12:30:45;;;;;;;10.93;6.80;;;;;;;-144.31;100.00;58022.63;5031603;28;20561;-59
2023/01/19 12:34:24;;;;;;;17.73;9.30;;;;;;;-144.31;100.00;58022.63;5032173;28;20195;-60
2023/01/19 12:37:49;;;;;;;10.43;7.05;;;;;;;-144.31;100.00;58022.63;5032417;28;20025;-60
2023/01/19 12:41:19;;;;;;;15.15;7.93;;;;;;;-144.31;100.00;58022.63;5030609;28;20044;-58
2023/01/19 12:44:45;;;;;;;13.10;7.95;;;;;;;-144.31;100.00;58022.63;5033613;28;20048;-58
2023/01/19 12:48:23;;;;;;;14.88;7.68;;;;;;;-144.31;100.00;58022.63;5030818;28;20108;-58
2023/01/19 12:51:48;;;;;;;13.00;7.57;;;;;;;-144.31;100.00;58022.63;5031945;28;20045;-61
2023/01/19 12:55:49;;;;;;;17.10;7.60;;;;;;;-144.31;100.00;58022.63;5029455;28;20037;-59
2023/01/19 12:59:23;;;;;;;12.23;7.10;;;;;;;-144.31;100.00;58022.63;5028211;28;20061;-57
2023/01/19 13:03:18;;;;;;;14.55;8.35;;;;;;;-144.31;100.00;58022.63;5033312;28;20486;-57
2023/01/19 13:06:45;;;;;;;12.55;7.82;;;;;;;-144.31;100.00;58022.63;5036734;28;20047;-60
2023/01/19 13:10:47;;;;;;;11.77;7.07;;;;;;;-144.31;100.00;58022.63;5035596;28;20395;-58
2023/01/19 13:14:26;;;;;;;10.23;6.38;;;;;;;-144.31;100.00;58022.63;5032845;28;20475;-55
2023/01/19 13:17:53;;;;;;;10.98;6.78;;;;;;;-144.31;100.00;58022.63;5033899;28;20205;-57
2023/01/19 13:21:32;;;;;;;14.02;6.63;;;;;;;-144.31;100.00;58022.63;5031612;28;20520;-58
2023/01/19 13:25:05;;;;;;;11.82;6.25;;;;;;;-144.31;100.00;58022.63;5034281;28;20033;-58
2023/01/19 13:28:35;;;;;;;14.45;8.20;;;;;;;-144.31;100.00;58022.63;5033108;28;20051;-58
2023/01/19 13:32:23;;;;;;;16.80;8.75;;;;;;;-144.31;100.00;58022.63;5034803;28;20225;-58
2023/01/19 13:35:53;;;;;;;14.18;9.27;;;;;;;-144.31;100.00;58022.63;5033160;28;20049;-54